Time;durP1;ratioP1;P1;durP2;ratioP2;P2;SDS_P1;SDS_P2;PMS_P1;PMS_P2;Temp;Humidity;BMP_temperature;BMP_pressure;BME280_temperature;BME280_humidity;BME280_pressure;Samples;Min_cycle;Max_cycle;Signal;HPM_P1;HPM_P2
2021/12/22 00:01:35;;;;;;;9.87;7.20;;;-1.70;90.30;;;;;;972814;146;27287;-76
2021/12/22 00:04:01;;;;;;;10.17;6.70;;;-1.70;90.30;;;;;;961073;148;27263;-76
2021/12/22 00:06:30;;;;;;;10.87;6.53;;;-1.80;90.20;;;;;;949384;146;27321;-76
2021/12/22 00:08:54;;;;;;;10.57;7.70;;;-1.80;90.20;;;;;;955821;148;27372;-76
2021/12/22 00:11:21;;;;;;;11.13;6.40;;;-1.80;90.20;;;;;;949433;147;27251;-76
2021/12/22 00:13:47;;;;;;;9.63;7.13;;;-1.80;90.20;;;;;;943085;151;27282;-76
2021/12/22 00:16:14;;;;;;;11.37;7.40;;;-1.90;90.10;;;;;;932236;151;27341;-78
2021/12/22 00:18:40;;;;;;;11.77;7.07;;;-1.90;90.10;;;;;;930246;149;27363;-78
2021/12/22 00:21:07;;;;;;;10.73;6.57;;;-1.90;90.10;;;;;;928572;149;27344;-78
2021/12/22 00:23:34;;;;;;;8.17;6.27;;;-1.90;90.10;;;;;;934192;152;27406;-78
2021/12/22 00:26:03;;;;;;;7.70;5.60;;;-2.00;90.00;;;;;;962734;146;27424;-78
2021/12/22 00:28:29;;;;;;;7.37;6.40;;;-2.00;90.00;;;;;;942077;146;27378;-78
2021/12/22 00:30:56;;;;;;;8.87;6.40;;;-2.00;90.00;;;;;;924917;151;27720;-77
2021/12/22 00:33:23;;;;;;;9.73;6.60;;;-2.10;90.00;;;;;;932707;150;27338;-77
2021/12/22 00:35:49;;;;;;;9.87;6.10;;;-2.10;90.00;;;;;;934989;152;27372;-77
2021/12/22 00:38:16;;;;;;;10.53;6.90;;;-2.10;90.00;;;;;;934715;149;27278;-77
2021/12/22 00:40:42;;;;;;;14.60;7.13;;;-2.20;90.00;;;;;;945304;150;27381;-77
2021/12/22 00:43:09;;;;;;;10.40;6.67;;;-2.20;90.10;;;;;;927296;153;27328;-77
2021/12/22 00:45:36;;;;;;;9.17;6.67;;;-2.20;90.20;;;;;;934037;153;27375;-77
2021/12/22 00:48:02;;;;;;;10.83;6.97;;;-2.30;90.20;;;;;;938359;149;27401;-77
2021/12/22 00:50:29;;;;;;;8.57;6.27;;;-2.30;90.30;;;;;;946979;149;28484;-77
2021/12/22 00:52:55;;;;;;;11.07;6.47;;;-2.20;90.40;;;;;;942987;147;27399;-77
2021/12/22 00:55:22;;;;;;;13.20;7.23;;;-2.30;90.40;;;;;;941236;150;27370;-77
2021/12/22 00:57:48;;;;;;;11.57;7.17;;;-2.30;90.40;;;;;;928530;152;27320;-77
2021/12/22 01:00:15;;;;;;;9.77;7.27;;;-2.30;90.40;;;;;;950285;148;27338;-77
2021/12/22 01:02:42;;;;;;;10.40;6.87;;;-2.30;90.40;;;;;;942087;149;27406;-77
2021/12/22 01:05:08;;;;;;;12.53;7.83;;;-2.30;90.40;;;;;;949066;150;27313;-77
2021/12/22 01:07:35;;;;;;;11.73;7.80;;;-2.30;90.40;;;;;;939078;148;27456;-77
2021/12/22 01:10:01;;;;;;;15.13;9.83;;;-2.30;90.40;;;;;;942209;148;27431;-77
2021/12/22 01:12:28;;;;;;;13.40;8.70;;;-2.40;90.40;;;;;;943651;151;27312;-77
2021/12/22 01:14:55;;;;;;;14.90;9.87;;;-2.40;90.40;;;;;;942584;150;27316;-77
2021/12/22 01:17:21;;;;;;;14.20;9.70;;;-2.40;90.50;;;;;;939010;152;27635;-77
2021/12/22 01:20:03;;;;;;;16.87;9.97;;;-2.40;90.60;;;;;;939108;151;27468;-77
2021/12/22 01:22:34;;;;;;;18.37;11.17;;;-2.40;90.60;;;;;;939990;150;27371;-77
2021/12/22 01:25:15;;;;;;;15.03;9.97;;;-2.40;90.70;;;;;;949225;151;27311;-77
2021/12/22 01:27:24;;;;;;;14.10;9.80;;;-2.40;90.80;;;;;;923135;152;27301;-77
2021/12/22 01:29:46;;;;;;;16.13;9.43;;;-2.40;90.90;;;;;;927126;152;27347;-77
2021/12/22 01:32:13;;;;;;;12.13;9.33;;;-2.40;90.90;;;;;;927129;155;27326;-77
2021/12/22 01:34:41;;;;;;;12.07;8.67;;;-2.40;90.90;;;;;;929701;152;27349;-77
2021/12/22 01:37:08;;;;;;;15.73;8.90;;;-2.40;90.80;;;;;;930145;152;27300;-77
2021/12/22 01:39:35;;;;;;;18.27;9.07;;;-2.40;90.70;;;;;;931685;152;27361;-77
2021/12/22 01:42:01;;;;;;;15.03;8.33;;;-2.50;90.70;;;;;;924346;154;27320;-77
2021/12/22 01:44:33;;;;;;;11.67;7.77;;;-2.50;90.60;;;;;;931715;152;27433;-77
2021/12/22 01:49:42;;;;;;;13.13;7.63;;;-2.50;90.50;;;;;;933756;151;27350;-76
2021/12/22 01:52:09;;;;;;;9.03;6.13;;;-2.60;90.40;;;;;;934101;153;27410;-76
2021/12/22 01:54:47;;;;;;;8.23;6.87;;;-2.60;90.40;;;;;;925338;153;27482;-76
2021/12/22 01:57:11;;;;;;;10.30;6.47;;;-2.60;90.40;;;;;;936256;150;27384;-76
2021/12/22 01:59:37;;;;;;;8.27;6.53;;;-2.70;90.40;;;;;;955994;150;27383;-76
2021/12/22 02:02:04;;;;;;;10.37;7.10;;;-2.70;90.40;;;;;;953979;150;27283;-76
2021/12/22 02:04:30;;;;;;;12.50;7.77;;;-2.70;90.40;;;;;;929384;150;27800;-76
2021/12/22 02:06:57;;;;;;;14.07;8.57;;;-2.70;90.40;;;;;;918667;153;27436;-76
2021/12/22 02:09:51;;;;;;;14.37;8.53;;;-2.70;90.40;;;;;;924927;153;27340;-76
2021/12/22 02:11:59;;;;;;;9.97;7.43;;;-2.80;90.40;;;;;;916126;156;27365;-76
2021/12/22 02:14:25;;;;;;;10.60;7.13;;;-2.80;90.40;;;;;;933493;153;27801;-76
2021/12/22 02:16:52;;;;;;;12.63;7.03;;;-2.80;90.40;;;;;;942903;149;27343;-76
2021/12/22 02:19:18;;;;;;;11.40;7.60;;;-2.80;90.40;;;;;;934816;151;27339;-76
2021/12/22 02:21:51;;;;;;;12.97;7.30;;;-2.80;90.40;;;;;;931539;152;27305;-76
2021/12/22 02:24:12;;;;;;;8.60;6.70;;;-2.90;90.50;;;;;;921348;151;27470;-76
2021/12/22 02:26:46;;;;;;;9.53;6.97;;;-2.90;90.40;;;;;;918573;153;27379;-76
2021/12/22 02:29:21;;;;;;;9.43;7.37;;;-2.90;90.80;;;;;;946718;150;27267;-76
2021/12/22 02:32:00;;;;;;;9.70;7.23;;;-2.90;90.50;;;;;;920613;153;27468;-76
2021/12/22 02:34:21;;;;;;;10.17;6.67;;;-2.90;90.50;;;;;;941296;149;27360;-76
2021/12/22 02:36:47;;;;;;;10.33;7.30;;;-2.90;90.60;;;;;;919720;154;27291;-75
2021/12/22 02:39:14;;;;;;;12.00;7.17;;;-2.90;90.50;;;;;;927974;151;27350;-76
2021/12/22 02:41:41;;;;;;;8.83;7.60;;;-3.00;90.50;;;;;;936576;149;27327;-75
2021/12/22 02:44:10;;;;;;;21.73;12.93;;;-3.00;90.40;;;;;;935440;152;27287;-76
2021/12/22 02:46:34;;;;;;;12.50;9.47;;;-3.00;90.40;;;;;;919904;151;27456;-76
2021/12/22 02:49:00;;;;;;;13.93;9.80;;;-3.00;90.40;;;;;;935389;153;27389;-76
2021/12/22 02:51:30;;;;;;;13.27;9.47;;;-3.00;90.40;;;;;;932592;152;27307;-76
2021/12/22 02:54:08;;;;;;;14.60;9.77;;;-3.00;90.30;;;;;;935406;152;27401;-76
2021/12/22 02:56:36;;;;;;;11.37;8.37;;;-3.10;90.30;;;;;;926908;153;27496;-76
2021/12/22 03:01:41;;;;;;;11.90;8.13;;;-3.10;90.30;;;;;;937797;149;27443;-76
2021/12/22 03:03:58;;;;;;;9.43;7.10;;;-3.10;90.30;;;;;;933828;151;27387;-76
2021/12/22 03:06:30;;;;;;;9.70;7.00;;;-3.10;90.30;;;;;;930743;153;27427;-76
2021/12/22 03:08:47;;;;;;;11.73;7.10;;;-3.10;90.40;;;;;;933372;149;27332;-76
2021/12/22 03:11:14;;;;;;;10.17;7.77;;;-3.20;90.40;;;;;;950210;146;27461;-76
2021/12/22 03:13:40;;;;;;;10.03;6.90;;;-3.20;90.40;;;;;;979628;146;27434;-76
2021/12/22 03:16:07;;;;;;;9.57;6.70;;;-3.20;90.50;;;;;;962839;146;27328;-76
2021/12/22 03:18:36;;;;;;;8.97;6.70;;;-3.20;90.50;;;;;;949220;146;27359;-76
2021/12/22 03:21:17;;;;;;;8.67;6.97;;;-3.20;90.50;;;;;;961838;149;27239;-76
2021/12/22 03:23:29;;;;;;;10.57;7.50;;;-3.20;90.50;;;;;;945156;151;27405;-76
2021/12/22 03:25:57;;;;;;;9.90;7.40;;;-3.20;90.50;;;;;;954846;149;27281;-76
2021/12/22 03:28:22;;;;;;;9.20;6.93;;;-3.20;90.50;;;;;;961297;148;27321;-76
2021/12/22 03:30:49;;;;;;;10.70;7.43;;;-3.20;90.50;;;;;;963237;148;27415;-76
2021/12/22 03:33:16;;;;;;;9.63;7.27;;;-3.20;90.40;;;;;;942678;149;27404;-76
2021/12/22 03:35:42;;;;;;;11.07;7.30;;;-3.20;90.50;;;;;;951706;149;27269;-76
2021/12/22 03:38:09;;;;;;;10.00;7.03;;;-3.20;90.50;;;;;;955342;148;27402;-76
2021/12/22 03:40:35;;;;;;;11.20;7.33;;;-3.20;90.50;;;;;;948997;151;27273;-76
2021/12/22 03:43:02;;;;;;;10.40;7.10;;;-3.20;90.50;;;;;;929035;149;27394;-76
2021/12/22 03:45:28;;;;;;;13.43;7.93;;;-3.20;90.30;;;;;;954854;146;27326;-76
2021/12/22 03:47:55;;;;;;;16.97;9.67;;;-3.20;90.70;;;;;;931082;151;27460;-76
2021/12/22 03:50:22;;;;;;;14.23;9.10;;;-3.20;90.70;;;;;;956428;149;27412;-78
2021/12/22 03:52:49;;;;;;;14.20;9.43;;;-3.20;90.80;;;;;;959824;146;27305;-78
2021/12/22 03:55:15;;;;;;;18.07;9.90;;;-3.20;90.70;;;;;;956668;148;27326;-76
2021/12/22 03:57:41;;;;;;;16.80;9.93;;;-3.20;90.80;;;;;;948612;149;27362;-76
2021/12/22 04:00:08;;;;;;;14.63;8.93;;;-3.20;90.80;;;;;;944498;149;27825;-76
2021/12/22 04:02:35;;;;;;;15.67;9.80;;;-3.20;90.80;;;;;;941417;149;27634;-76
2021/12/22 04:05:01;;;;;;;12.40;9.10;;;-3.20;90.80;;;;;;967761;146;27349;-76
2021/12/22 04:07:28;;;;;;;15.87;9.40;;;-3.20;90.80;;;;;;958698;149;27309;-76
2021/12/22 04:09:54;;;;;;;14.47;9.73;;;-3.20;90.80;;;;;;942551;149;27305;-76
2021/12/22 04:12:21;;;;;;;15.83;9.67;;;-3.20;90.80;;;;;;952089;148;27927;-76
2021/12/22 04:14:48;;;;;;;13.73;9.37;;;-3.20;90.80;;;;;;939606;151;27333;-76
2021/12/22 04:17:14;;;;;;;17.10;10.87;;;-3.20;90.80;;;;;;961601;145;27320;-76
2021/12/22 04:19:41;;;;;;;23.47;10.00;;;-3.20;90.80;;;;;;953832;150;27737;-76
2021/12/22 04:22:08;;;;;;;14.53;8.43;;;-3.20;90.80;;;;;;968858;147;27285;-76
2021/12/22 04:24:37;;;;;;;16.10;9.53;;;-3.20;90.80;;;;;;965958;147;27290;-76
2021/12/22 04:27:03;;;;;;;13.60;8.37;;;-3.20;91.00;;;;;;948391;147;27377;-76
2021/12/22 04:29:30;;;;;;;17.03;8.83;;;-3.20;90.70;;;;;;944166;150;27405;-76
2021/12/22 04:31:56;;;;;;;15.47;8.80;;;-3.30;90.60;;;;;;950972;147;27859;-76
2021/12/22 04:34:23;;;;;;;12.13;7.97;;;-3.30;90.60;;;;;;950602;148;27830;-76
2021/12/22 04:36:49;;;;;;;11.20;8.20;;;-3.30;90.50;;;;;;969793;145;27228;-76
2021/12/22 04:39:16;;;;;;;11.83;7.63;;;-3.30;90.50;;;;;;947168;148;27787;-76
2021/12/22 04:41:43;;;;;;;13.07;7.97;;;-3.30;90.40;;;;;;969926;148;27386;-76
2021/12/22 04:44:09;;;;;;;13.43;8.07;;;-3.40;90.30;;;;;;961568;148;27315;-76
2021/12/22 04:46:36;;;;;;;15.30;7.80;;;-3.40;90.30;;;;;;946055;148;27358;-76
2021/12/22 04:49:04;;;;;;;10.70;7.37;;;-3.40;90.20;;;;;;945123;147;27348;-76
2021/12/22 04:51:30;;;;;;;9.53;7.03;;;-3.40;90.20;;;;;;947401;151;27344;-76
2021/12/22 04:54:12;;;;;;;10.40;7.33;;;-3.50;90.10;;;;;;938987;150;27677;-76
2021/12/22 04:56:28;;;;;;;8.60;6.83;;;-3.50;90.10;;;;;;968097;147;27306;-76
2021/12/22 04:58:55;;;;;;;12.73;7.13;;;-3.50;90.20;;;;;;955161;145;27316;-76
2021/12/22 05:01:21;;;;;;;9.93;7.50;;;-3.60;90.50;;;;;;960823;145;27354;-76
2021/12/22 05:03:48;;;;;;;14.63;7.33;;;-3.60;90.30;;;;;;942520;148;27360;-76
2021/12/22 05:06:14;;;;;;;12.53;7.20;;;-3.60;90.30;;;;;;953196;148;27334;-76
2021/12/22 05:08:41;;;;;;;16.33;8.90;;;-3.60;90.40;;;;;;970123;145;27294;-76
2021/12/22 05:11:07;;;;;;;12.07;7.40;;;-3.60;90.40;;;;;;939280;151;27344;-76
2021/12/22 05:13:35;;;;;;;12.53;8.17;;;-3.60;90.40;;;;;;939889;150;27344;-76
2021/12/22 05:16:04;;;;;;;10.93;7.67;;;-3.60;90.40;;;;;;947762;148;27369;-76
2021/12/22 05:21:12;;;;;;;13.07;8.30;;;-3.60;90.50;;;;;;935527;149;27800;-76
2021/12/22 05:23:38;;;;;;;10.57;7.47;;;-3.60;90.50;;;;;;953700;148;27285;-76
2021/12/22 05:26:05;;;;;;;13.30;7.40;;;-3.60;90.50;;;;;;955613;148;27303;-76
2021/12/22 05:28:31;;;;;;;11.20;7.57;;;-3.60;90.50;;;;;;950662;148;27299;-76
2021/12/22 05:30:58;;;;;;;10.17;7.23;;;-3.70;90.50;;;;;;956303;149;27786;-76
2021/12/22 05:33:25;;;;;;;10.73;7.97;;;-3.70;90.50;;;;;;954622;148;27299;-76
2021/12/22 05:35:51;;;;;;;12.43;8.53;;;-3.70;90.50;;;;;;951149;148;27363;-76
2021/12/22 05:38:18;;;;;;;11.77;7.60;;;-3.70;90.40;;;;;;956780;148;27330;-76
2021/12/22 05:40:44;;;;;;;12.70;8.57;;;-3.70;90.40;;;;;;955732;148;27317;-76
2021/12/22 05:43:11;;;;;;;13.70;7.57;;;-3.70;90.40;;;;;;968218;146;27272;-76
2021/12/22 05:45:38;;;;;;;11.70;8.13;;;-3.70;90.40;;;;;;957562;146;27355;-76
2021/12/22 05:48:05;;;;;;;12.27;8.40;;;-3.70;90.50;;;;;;931040;154;27370;-76
2021/12/22 05:50:31;;;;;;;12.00;7.93;;;-3.70;90.50;;;;;;952679;148;27368;-76
2021/12/22 05:52:57;;;;;;;15.33;9.23;;;-3.70;90.60;;;;;;950734;148;27373;-76
2021/12/22 05:55:24;;;;;;;15.27;8.43;;;-3.70;90.70;;;;;;948493;146;27404;-76
2021/12/22 05:57:51;;;;;;;15.07;10.03;;;-3.70;90.70;;;;;;952195;146;27331;-76
2021/12/22 06:00:17;;;;;;;14.03;9.40;;;-3.70;90.70;;;;;;965510;146;27285;-76
2021/12/22 06:02:44;;;;;;;16.37;9.93;;;-3.70;90.70;;;;;;973653;146;27354;-76
2021/12/22 06:05:10;;;;;;;16.87;9.37;;;-3.70;90.70;;;;;;952707;146;27303;-76
2021/12/22 06:07:37;;;;;;;15.37;9.37;;;-3.70;90.60;;;;;;936449;148;27363;-76
2021/12/22 06:10:04;;;;;;;15.43;9.00;;;-3.70;90.50;;;;;;961043;148;27298;-76
2021/12/22 06:12:30;;;;;;;12.27;7.77;;;-3.70;90.50;;;;;;939471;148;27424;-76
2021/12/22 06:14:57;;;;;;;15.03;10.00;;;-3.70;90.50;;;;;;942360;150;27311;-76
2021/12/22 06:17:23;;;;;;;12.47;9.03;;;-3.70;90.50;;;;;;951616;150;27455;-76
2021/12/22 06:19:50;;;;;;;13.80;9.70;;;-3.70;90.40;;;;;;942651;147;27284;-75
2021/12/22 06:22:16;;;;;;;12.60;9.70;;;-3.70;90.40;;;;;;938667;149;27302;-75
2021/12/22 06:24:43;;;;;;;11.53;8.63;;;-3.70;90.50;;;;;;928230;151;27310;-75
2021/12/22 06:27:10;;;;;;;15.67;8.17;;;-3.70;90.50;;;;;;945949;149;27360;-75
2021/12/22 06:29:36;;;;;;;11.17;8.47;;;-3.70;90.60;;;;;;949528;149;27297;-76
2021/12/22 06:32:06;;;;;;;14.47;8.17;;;-3.70;90.70;;;;;;942433;150;27790;-76
2021/12/22 06:34:33;;;;;;;14.20;9.03;;;-3.70;90.80;;;;;;950235;149;27353;-76
2021/12/22 06:36:59;;;;;;;12.70;8.47;;;-3.70;90.80;;;;;;927971;152;27379;-76
2021/12/22 06:39:26;;;;;;;13.70;8.97;;;-3.70;90.80;;;;;;937050;149;27349;-76
2021/12/22 06:41:53;;;;;;;11.57;7.73;;;-3.70;91.20;;;;;;933557;152;27353;-75
2021/12/22 06:44:19;;;;;;;13.17;8.20;;;-3.70;90.80;;;;;;937945;151;27366;-75
2021/12/22 06:46:46;;;;;;;13.93;9.03;;;-3.70;90.90;;;;;;936859;151;27351;-75
2021/12/22 06:49:12;;;;;;;10.80;8.57;;;-3.70;90.80;;;;;;928749;154;27516;-75
2021/12/22 06:51:39;;;;;;;15.60;10.03;;;-3.70;90.90;;;;;;933964;149;27665;-75
2021/12/22 06:54:05;;;;;;;17.27;11.30;;;-3.70;90.80;;;;;;936626;150;27393;-75
2021/12/22 06:56:35;;;;;;;20.80;13.17;;;-3.60;90.90;;;;;;932128;150;27461;-75
2021/12/22 06:59:02;;;;;;;18.80;11.70;;;-3.60;90.90;;;;;;935919;153;27866;-75
2021/12/22 07:01:31;;;;;;;18.90;11.33;;;-3.60;90.90;;;;;;934983;152;27311;-75
2021/12/22 07:03:55;;;;;;;16.13;10.40;;;-3.60;90.80;;;;;;921696;150;27336;-75
2021/12/22 07:06:21;;;;;;;17.67;10.87;;;-3.60;90.90;;;;;;937460;150;27416;-76
2021/12/22 07:08:48;;;;;;;17.63;10.60;;;-3.60;90.90;;;;;;925711;153;27287;-75
2021/12/22 07:11:15;;;;;;;18.37;10.60;;;-3.60;90.90;;;;;;940595;149;27320;-75
2021/12/22 07:13:41;;;;;;;19.03;10.50;;;-3.60;90.80;;;;;;936861;149;27379;-76
2021/12/22 07:16:08;;;;;;;17.10;10.70;;;-3.60;90.80;;;;;;947336;148;27274;-75
2021/12/22 07:18:34;;;;;;;17.23;9.93;;;-3.60;90.80;;;;;;940273;149;27469;-75
2021/12/22 07:21:01;;;;;;;12.57;9.70;;;-3.60;90.80;;;;;;939579;151;27440;-76
2021/12/22 07:23:28;;;;;;;18.17;10.73;;;-3.60;90.80;;;;;;932287;151;27331;-76
2021/12/22 07:25:54;;;;;;;16.57;10.37;;;-3.50;90.80;;;;;;939211;152;27404;-75
2021/12/22 07:28:21;;;;;;;15.07;10.20;;;-3.50;90.70;;;;;;938228;151;27319;-75
2021/12/22 07:30:47;;;;;;;15.27;11.07;;;-3.50;90.70;;;;;;943926;150;27352;-75
2021/12/22 07:33:14;;;;;;;19.17;12.03;;;-3.50;90.70;;;;;;934620;149;27378;-75
2021/12/22 07:35:43;;;;;;;15.33;9.93;;;-3.50;90.70;;;;;;947129;149;27423;-75
2021/12/22 07:38:26;;;;;;;15.13;9.73;;;-3.50;90.70;;;;;;936930;151;27353;-75
2021/12/22 07:40:52;;;;;;;15.43;9.33;;;-3.50;90.70;;;;;;944360;149;27451;-75
2021/12/22 07:43:18;;;;;;;14.20;8.97;;;-3.50;90.80;;;;;;947811;148;27350;-75
2021/12/22 07:45:45;;;;;;;13.90;9.47;;;-3.40;90.90;;;;;;941510;151;27299;-75
2021/12/22 07:48:11;;;;;;;14.87;9.77;;;-3.40;90.90;;;;;;932042;154;27345;-75
2021/12/22 07:50:38;;;;;;;12.43;8.83;;;-3.40;91.00;;;;;;938489;149;27369;-75
2021/12/22 07:53:05;;;;;;;15.93;9.73;;;-3.30;91.00;;;;;;945691;149;27379;-75
2021/12/22 07:55:31;;;;;;;16.60;10.77;;;-3.20;91.10;;;;;;944296;151;27379;-75
2021/12/22 07:57:58;;;;;;;22.47;11.77;;;-3.20;91.10;;;;;;939391;149;27287;-75
2021/12/22 08:00:24;;;;;;;15.43;9.67;;;-3.10;91.10;;;;;;938631;150;27346;-75
2021/12/22 08:02:51;;;;;;;35.97;19.40;;;-3.00;91.40;;;;;;933180;149;27354;-75
2021/12/22 08:05:17;;;;;;;20.60;13.07;;;-2.80;92.00;;;;;;932663;152;27289;-75
2021/12/22 08:07:44;;;;;;;18.77;10.53;;;-2.60;92.50;;;;;;932511;152;27489;-75
2021/12/22 08:10:11;;;;;;;14.03;9.57;;;-2.40;92.80;;;;;;952432;149;27315;-75
2021/12/22 08:12:37;;;;;;;12.57;8.87;;;-2.20;92.90;;;;;;948142;149;27360;-75
2021/12/22 08:15:07;;;;;;;12.73;8.57;;;-2.00;92.80;;;;;;941268;150;27666;-76
2021/12/22 08:17:34;;;;;;;12.87;8.80;;;-1.80;92.60;;;;;;934089;149;27409;-76
2021/12/22 08:20:00;;;;;;;14.30;9.17;;;-1.60;92.20;;;;;;934024;149;27398;-76
2021/12/22 08:22:26;;;;;;;18.23;13.93;;;-1.50;91.80;;;;;;968632;146;27414;-76
2021/12/22 08:24:56;;;;;;;14.70;10.10;;;-1.40;91.40;;;;;;961455;147;27261;-76
2021/12/22 08:27:22;;;;;;;13.07;9.30;;;-1.30;91.20;;;;;;949339;151;27358;-76
2021/12/22 08:29:49;;;;;;;15.47;10.70;;;-1.20;91.00;;;;;;948770;149;27292;-76
2021/12/22 08:32:16;;;;;;;13.47;9.13;;;-1.20;90.80;;;;;;930698;149;27394;-76
2021/12/22 08:34:42;;;;;;;10.60;8.93;;;-1.10;90.70;;;;;;935208;149;27299;-76
2021/12/22 08:39:53;;;;;;;10.37;8.20;;;-1.10;90.60;;;;;;935579;149;27379;-75
2021/12/22 08:42:20;;;;;;;12.20;8.23;;;-1.00;90.60;;;;;;949814;151;27326;-75
2021/12/22 08:44:47;;;;;;;14.80;8.10;;;-1.10;90.60;;;;;;944131;150;27340;-76
2021/12/22 08:47:13;;;;;;;8.43;7.33;;;-1.00;90.30;;;;;;942966;151;27265;-76
2021/12/22 08:49:40;;;;;;;12.77;8.73;;;-1.00;90.70;;;;;;940708;151;27355;-76
2021/12/22 08:52:09;;;;;;;15.00;10.87;;;-0.90;90.90;;;;;;960068;147;27350;-76
2021/12/22 08:54:38;;;;;;;13.77;9.33;;;-0.90;90.90;;;;;;942770;151;27418;-76
2021/12/22 08:57:05;;;;;;;15.17;9.60;;;-0.80;90.80;;;;;;940095;151;27351;-76
2021/12/22 08:59:32;;;;;;;13.73;8.63;;;-0.80;91.30;;;;;;947321;147;27374;-76
2021/12/22 09:01:58;;;;;;;14.73;9.53;;;-0.70;91.30;;;;;;935158;153;27318;-76
2021/12/22 09:04:25;;;;;;;13.47;9.67;;;-0.60;91.20;;;;;;930170;150;27333;-76
2021/12/22 09:06:51;;;;;;;13.67;8.40;;;-0.60;91.20;;;;;;961086;146;27370;-76
2021/12/22 09:09:18;;;;;;;12.80;6.97;;;-0.60;91.10;;;;;;966881;146;27210;-76
2021/12/22 09:11:47;;;;;;;9.33;6.93;;;-0.50;91.10;;;;;;967445;146;27401;-76
2021/12/22 09:14:14;;;;;;;11.30;7.53;;;-0.50;91.20;;;;;;954175;146;27304;-76
2021/12/22 09:16:40;;;;;;;8.67;7.37;;;-0.40;91.20;;;;;;944880;150;27462;-76
2021/12/22 09:19:07;;;;;;;10.10;7.73;;;-0.40;91.30;;;;;;955417;147;27293;-76
2021/12/22 09:21:34;;;;;;;10.67;7.30;;;-0.40;91.30;;;;;;956031;147;27334;-76
2021/12/22 09:24:00;;;;;;;10.70;7.30;;;-0.30;91.40;;;;;;918092;151;27411;-76
2021/12/22 09:26:27;;;;;;;11.77;8.23;;;-0.20;91.50;;;;;;933579;151;27312;-76
2021/12/22 09:28:54;;;;;;;10.03;7.60;;;-0.20;91.50;;;;;;958905;148;27316;-76
2021/12/22 09:31:20;;;;;;;12.73;8.10;;;-0.10;91.60;;;;;;941825;151;27312;-76
2021/12/22 09:33:46;;;;;;;11.03;8.57;;;0.00;91.70;;;;;;939952;148;27413;-76
2021/12/22 09:36:13;;;;;;;9.77;7.80;;;0.00;91.70;;;;;;934914;149;27299;-76
2021/12/22 09:38:40;;;;;;;9.40;7.17;;;0.10;91.80;;;;;;919734;155;27343;-76
2021/12/22 09:41:06;;;;;;;8.67;7.60;;;0.10;91.80;;;;;;914388;154;27345;-76
2021/12/22 09:43:33;;;;;;;11.37;8.43;;;0.20;91.90;;;;;;944442;151;27387;-76
2021/12/22 09:46:07;;;;;;;8.90;7.83;;;0.30;91.90;;;;;;950132;151;27289;-76
2021/12/22 09:48:36;;;;;;;11.53;8.27;;;0.40;92.00;;;;;;949563;148;27353;-76
2021/12/22 09:53:28;;;;;;;10.77;7.87;;;0.50;92.10;;;;;;955430;148;27253;-76
2021/12/22 09:55:54;;;;;;;9.37;8.30;;;0.60;92.10;;;;;;944474;151;27478;-76
2021/12/22 09:58:23;;;;;;;10.70;8.33;;;0.60;92.10;;;;;;932239;151;27318;-75
2021/12/22 10:00:50;;;;;;;9.20;7.90;;;0.70;92.10;;;;;;944814;148;27781;-75
2021/12/22 10:03:16;;;;;;;9.90;8.50;;;0.80;92.20;;;;;;949254;147;27411;-76
2021/12/22 10:05:43;;;;;;;9.53;8.30;;;0.90;92.20;;;;;;944794;148;27414;-76
2021/12/22 10:08:18;;;;;;;9.97;7.97;;;0.90;92.10;;;;;;953842;147;27871;-76
2021/12/22 10:10:47;;;;;;;11.57;8.10;;;1.00;92.10;;;;;;949207;148;27324;-75
2021/12/22 10:13:17;;;;;;;10.83;8.70;;;1.10;92.10;;;;;;928158;151;27453;-75
2021/12/22 10:15:43;;;;;;;10.20;8.77;;;1.10;92.10;;;;;;958192;147;27378;-77
2021/12/22 10:18:15;;;;;;;9.93;8.17;;;1.20;92.10;;;;;;955665;149;27264;-77
2021/12/22 10:20:42;;;;;;;10.03;8.40;;;1.30;92.10;;;;;;947006;149;27319;-77
2021/12/22 10:23:17;;;;;;;9.70;8.40;;;1.40;92.20;;;;;;939734;151;27789;-77
2021/12/22 10:25:44;;;;;;;9.43;7.90;;;1.40;92.20;;;;;;937391;151;27304;-75
2021/12/22 10:28:17;;;;;;;12.43;8.50;;;1.50;92.30;;;;;;946524;149;27859;-75
2021/12/22 10:30:37;;;;;;;10.27;8.60;;;1.60;92.20;;;;;;954516;148;27351;-75
2021/12/22 10:33:06;;;;;;;10.47;8.70;;;1.70;92.10;;;;;;945479;149;27422;-75
2021/12/22 10:35:34;;;;;;;10.70;8.30;;;1.80;92.10;;;;;;948564;146;27370;-75
2021/12/22 10:37:59;;;;;;;10.50;8.20;;;1.90;92.00;;;;;;949131;146;27398;-75
2021/12/22 10:40:29;;;;;;;10.93;8.47;;;1.90;92.00;;;;;;949301;148;27375;-76
2021/12/22 10:42:55;;;;;;;10.30;7.93;;;2.00;91.90;;;;;;950808;148;27276;-76
2021/12/22 10:45:22;;;;;;;9.10;8.17;;;2.10;91.90;;;;;;946813;149;27415;-76
2021/12/22 10:50:39;;;;;;;13.73;8.90;;;2.20;91.80;;;;;;963376;146;27377;-75
2021/12/22 10:53:05;;;;;;;10.27;8.73;;;2.30;91.60;;;;;;961606;146;27275;-75
2021/12/22 10:55:43;;;;;;;10.43;8.33;;;2.30;91.50;;;;;;973661;146;27362;-75
2021/12/22 10:58:28;;;;;;;9.60;8.37;;;2.30;91.50;;;;;;963061;146;27320;-75
2021/12/22 11:01:13;;;;;;;10.80;8.93;;;2.40;91.50;;;;;;939558;148;27272;-75
2021/12/22 11:03:51;;;;;;;12.33;8.97;;;2.40;91.40;;;;;;949442;148;27300;-75
2021/12/22 11:06:23;;;;;;;11.23;8.93;;;2.50;91.50;;;;;;944442;148;27316;-76
2021/12/22 11:08:59;;;;;;;10.20;8.20;;;2.50;91.50;;;;;;947948;151;27274;-76
2021/12/22 11:11:27;;;;;;;9.80;8.60;;;2.50;91.50;;;;;;954067;149;27326;-76
2021/12/22 11:14:01;;;;;;;10.57;8.33;;;2.60;91.40;;;;;;936149;149;27327;-76
2021/12/22 11:16:27;;;;;;;9.20;8.30;;;2.60;91.10;;;;;;957860;145;27464;-76
2021/12/22 11:19:09;;;;;;;9.43;8.23;;;2.70;91.30;;;;;;938813;146;27328;-76
2021/12/22 11:21:37;;;;;;;9.40;8.27;;;2.70;91.30;;;;;;943724;149;27320;-76
2021/12/22 11:24:02;;;;;;;9.73;8.50;;;2.80;91.30;;;;;;942570;151;27401;-76
2021/12/22 11:26:29;;;;;;;9.27;7.77;;;2.80;91.30;;;;;;939763;151;27295;-76
2021/12/22 11:28:55;;;;;;;9.80;8.80;;;2.80;91.30;;;;;;937614;150;27318;-76
2021/12/22 11:31:22;;;;;;;10.00;8.27;;;2.90;91.30;;;;;;941916;151;27290;-76
2021/12/22 11:33:48;;;;;;;11.40;8.60;;;2.90;91.20;;;;;;936220;151;27275;-76
2021/12/22 11:36:15;;;;;;;11.07;8.23;;;2.90;91.20;;;;;;949653;148;27390;-76
2021/12/22 11:38:41;;;;;;;10.80;8.13;;;3.00;91.30;;;;;;949436;151;27329;-76
2021/12/22 11:41:12;;;;;;;9.57;8.57;;;3.10;91.30;;;;;;937231;148;27328;-76
2021/12/22 11:43:40;;;;;;;10.03;8.90;;;3.10;91.30;;;;;;933182;149;27414;-76
2021/12/22 11:46:07;;;;;;;10.80;8.97;;;3.10;91.30;;;;;;949777;149;27290;-77
2021/12/22 11:48:33;;;;;;;11.70;9.10;;;3.20;91.30;;;;;;928211;152;27379;-77
2021/12/22 11:51:00;;;;;;;9.83;8.67;;;3.20;91.20;;;;;;941323;148;27282;-77
2021/12/22 11:53:27;;;;;;;10.53;8.50;;;3.30;91.20;;;;;;943727;151;27363;-77
2021/12/22 11:55:55;;;;;;;12.13;9.17;;;3.30;91.10;;;;;;943508;148;27470;-77
2021/12/22 11:58:20;;;;;;;12.03;9.77;;;3.40;91.10;;;;;;949292;148;27413;-77
2021/12/22 12:00:59;;;;;;;9.73;8.17;;;3.40;91.10;;;;;;949293;148;27328;-77
2021/12/22 12:03:43;;;;;;;10.33;8.17;;;3.40;91.10;;;;;;958878;146;27253;-76
2021/12/22 12:06:16;;;;;;;8.90;8.00;;;3.40;90.90;;;;;;934380;149;27944;-76
2021/12/22 12:08:44;;;;;;;9.57;8.13;;;3.50;90.80;;;;;;947096;149;27311;-76
2021/12/22 12:11:08;;;;;;;10.17;8.87;;;3.50;90.70;;;;;;953216;146;27297;-76
2021/12/22 12:13:44;;;;;;;8.43;7.53;;;3.50;90.70;;;;;;941677;151;27262;-77
2021/12/22 12:21:55;;;;;;;8.30;7.50;;;3.70;90.70;;;;;;967850;146;27322;-76
2021/12/22 12:24:42;;;;;;;9.23;8.03;;;3.70;90.60;;;;;;955640;147;27256;-76
2021/12/22 12:27:30;;;;;;;10.03;8.00;;;3.70;90.60;;;;;;934522;151;27265;-76
2021/12/22 12:30:06;;;;;;;10.07;8.87;;;3.70;90.60;;;;;;943497;151;27302;-76
2021/12/22 12:32:50;;;;;;;10.17;8.83;;;3.70;90.60;;;;;;967475;147;27327;-76
2021/12/22 12:35:20;;;;;;;9.73;7.87;;;3.80;90.50;;;;;;947672;149;27362;-76
2021/12/22 12:38:12;;;;;;;9.70;8.50;;;3.80;90.40;;;;;;935695;151;27490;-76
2021/12/22 12:40:59;;;;;;;9.80;7.70;;;3.90;90.50;;;;;;947367;151;27806;-76
2021/12/22 12:43:52;;;;;;;11.27;8.47;;;3.90;90.30;;;;;;955190;147;27311;-77
2021/12/22 12:46:27;;;;;;;9.13;8.17;;;3.90;90.20;;;;;;941999;147;27300;-76
2021/12/22 12:48:54;;;;;;;8.50;7.60;;;3.90;90.10;;;;;;939603;150;27336;-76
2021/12/22 12:51:20;;;;;;;12.33;8.67;;;3.90;90.00;;;;;;943761;147;27785;-76
2021/12/22 12:53:47;;;;;;;10.77;9.33;;;4.00;89.80;;;;;;948533;147;27308;-76
2021/12/22 12:56:13;;;;;;;11.03;9.40;;;4.00;89.90;;;;;;946366;150;27399;-77
2021/12/22 12:58:55;;;;;;;12.87;9.57;;;4.00;89.80;;;;;;948714;147;27382;-76
2021/12/22 13:01:52;;;;;;;10.23;8.63;;;4.00;89.90;;;;;;952921;147;27417;-76
2021/12/22 13:04:34;;;;;;;9.73;8.73;;;4.00;89.70;;;;;;938555;149;27313;-77
2021/12/22 13:07:09;;;;;;;9.53;8.50;;;4.00;89.30;;;;;;955027;147;27346;-76